Time;durP1;ratioP1;P1;durP2;ratioP2;P2;SDS_P1;SDS_P2;PMS_P1;PMS_P2;Temp;Humidity;BMP_temperature;BMP_pressure;BME280_temperature;BME280_humidity;BME280_pressure;Samples;Min_cycle;Max_cycle;Signal;HPM_P1;HPM_P2
2021/12/08 00:03:38;;;;;;;38.20;16.05;;;;;;;;;;8432279;28;20044;-75
2021/12/08 00:07:40;;;;;;;31.10;11.80;;;;;;;;;;8431719;28;20044;-77
2021/12/08 00:16:11;;;;;;;34.75;15.77;;;;;;;;;;8431802;28;20071;-75
2021/12/08 00:20:14;;;;;;;40.42;15.85;;;;;;;;;;8431784;28;20048;-76
2021/12/08 00:24:17;;;;;;;46.88;18.80;;;;;;;;;;8431625;28;20048;-76
2021/12/08 00:28:20;;;;;;;39.97;14.88;;;;;;;;;;8431028;28;20040;-74
2021/12/08 00:32:28;;;;;;;32.08;13.18;;;;;;;;;;8431017;28;20040;-77
2021/12/08 00:36:41;;;;;;;29.65;11.73;;;;;;;;;;8430845;28;20044;-75
2021/12/08 00:40:43;;;;;;;;;;;;;;;;;;8431525;28;20055;-75
2021/12/08 00:44:46;;;;;;;34.55;15.20;;;;;;;;;;8430625;28;19973;-74
2021/12/08 00:48:51;;;;;;;44.25;17.40;;;;;;;;;;8430658;28;20079;-75
2021/12/08 00:52:56;;;;;;;31.70;11.32;;;;;;;;;;8430463;28;20070;-76
2021/12/08 00:56:59;;;;;;;31.02;13.30;;;;;;;;;;8430751;28;20043;-75
2021/12/08 01:01:04;;;;;;;32.95;12.05;;;;;;;;;;8430801;28;20040;-76
2021/12/08 01:05:10;;;;;;;33.40;14.38;;;;;;;;;;8429853;28;20135;-75
2021/12/08 01:09:15;;;;;;;25.40;10.15;;;;;;;;;;8430461;28;20043;-78
2021/12/08 01:13:19;;;;;;;25.33;12.20;;;;;;;;;;8430147;28;20383;-77
2021/12/08 01:17:22;;;;;;;34.88;12.52;;;;;;;;;;8429957;28;20067;-77
2021/12/08 01:21:27;;;;;;;26.70;12.38;;;;;;;;;;8429991;28;20040;-77
2021/12/08 01:25:31;;;;;;;34.97;14.48;;;;;;;;;;8430284;28;20044;-76
2021/12/08 01:29:34;;;;;;;34.55;12.23;;;;;;;;;;8430340;28;20068;-77
2021/12/08 01:33:37;;;;;;;33.13;13.55;;;;;;;;;;8429723;28;20133;-76
2021/12/08 01:37:41;;;;;;;28.23;13.32;;;;;;;;;;8430108;28;20051;-75
2021/12/08 01:41:47;;;;;;;27.88;11.80;;;;;;;;;;8430105;28;20048;-75
2021/12/08 01:46:00;;;;;;;20.83;11.18;;;;;;;;;;8430144;28;20060;-77
2021/12/08 01:50:04;;;;;;;32.30;12.77;;;;;;;;;;8429666;28;20052;-76
2021/12/08 01:54:08;;;;;;;37.53;12.40;;;;;;;;;;8429467;28;20141;-76
2021/12/08 01:58:13;;;;;;;30.55;12.77;;;;;;;;;;8429430;28;20052;-77
2021/12/08 02:02:16;;;;;;;40.03;13.43;;;;;;;;;;8429354;28;20072;-76
2021/12/08 02:06:21;;;;;;;23.63;9.20;;;;;;;;;;8429727;28;20060;-76
2021/12/08 02:10:28;;;;;;;35.33;13.23;;;;;;;;;;8429345;28;20040;-73
2021/12/08 02:14:32;;;;;;;36.20;14.07;;;;;;;;;;8429650;28;20044;-75
2021/12/08 02:18:35;;;;;;;35.35;13.43;;;;;;;;;;8431477;28;20052;-75
2021/12/08 02:22:40;;;;;;;29.73;12.02;;;;;;;;;;8435074;28;20048;-76
2021/12/08 02:26:47;;;;;;;58.70;21.17;;;;;;;;;;8436273;28;20387;-75
2021/12/08 02:30:55;;;;;;;30.95;12.57;;;;;;;;;;8435319;28;20105;-76
2021/12/08 02:48:00;;;;;;;33.63;13.45;;;;;;;;;;8434750;28;20079;-75
2021/12/08 02:52:04;;;;;;;36.47;14.13;;;;;;;;;;8434080;28;20048;-76
2021/12/08 02:56:09;;;;;;;53.88;19.30;;;;;;;;;;8433894;28;20052;-76
2021/12/08 03:00:16;;;;;;;41.47;15.90;;;;;;;;;;8434304;28;20048;-76
2021/12/08 03:04:20;;;;;;;43.78;17.27;;;;;;;;;;8433840;28;20040;-76
2021/12/08 03:08:22;;;;;;;68.32;22.65;;;;;;;;;;8433568;28;20410;-76
2021/12/08 03:12:31;;;;;;;48.33;16.88;;;;;;;;;;8433925;28;20507;-73
2021/12/08 03:16:35;;;;;;;44.00;16.15;;;;;;;;;;8433629;28;20138;-77
2021/12/08 03:20:40;;;;;;;43.70;14.77;;;;;;;;;;8433072;28;20060;-74
2021/12/08 03:24:45;;;;;;;42.95;15.73;;;;;;;;;;8433076;28;20093;-77
2021/12/08 03:28:59;;;;;;;40.13;15.40;;;;;;;;;;8432440;28;20040;-74
2021/12/08 03:33:02;;;;;;;40.40;17.50;;;;;;;;;;8432841;28;20044;-77
2021/12/08 03:37:07;;;;;;;45.53;16.63;;;;;;;;;;8433112;28;20098;-76
2021/12/08 03:41:11;;;;;;;40.90;14.23;;;;;;;;;;8432534;28;20079;-75
2021/12/08 03:45:20;;;;;;;56.00;24.55;;;;;;;;;;8432427;28;20052;-76
2021/12/08 03:49:22;;;;;;;36.05;12.57;;;;;;;;;;8432289;28;20135;-75
2021/12/08 03:53:26;;;;;;;41.67;16.40;;;;;;;;;;8432589;28;20542;-77
2021/12/08 03:57:29;;;;;;;36.65;14.35;;;;;;;;;;8431944;28;20044;-76
2021/12/08 04:01:34;;;;;;;36.55;16.38;;;;;;;;;;8431941;28;20048;-76
2021/12/08 04:05:45;;;;;;;39.55;14.13;;;;;;;;;;8431790;28;20055;-75
2021/12/08 04:09:50;;;;;;;43.33;16.10;;;;;;;;;;8431666;28;20044;-75
2021/12/08 04:13:56;;;;;;;41.40;14.18;;;;;;;;;;8431978;28;20055;-76
2021/12/08 04:18:01;;;;;;;43.90;15.15;;;;;;;;;;8431284;28;20051;-76
2021/12/08 04:22:09;;;;;;;37.55;15.15;;;;;;;;;;8431136;28;20051;-76
2021/12/08 04:26:16;;;;;;;40.60;15.85;;;;;;;;;;8431131;28;20043;-76
2021/12/08 04:30:25;;;;;;;58.53;20.40;;;;;;;;;;8430909;28;20399;-75
2021/12/08 04:34:33;;;;;;;33.45;14.48;;;;;;;;;;8430856;28;20044;-75
2021/12/08 04:38:41;;;;;;;63.45;19.60;;;;;;;;;;8431034;28;20058;-75
2021/12/08 04:42:56;;;;;;;50.17;19.60;;;;;;;;;;8429933;28;20048;-77
2021/12/08 04:51:46;;;;;;;48.00;17.63;;;;;;;;;;8393826;28;20090;-77
2021/12/08 05:00:26;;;;;;;37.65;14.55;;;;;;;;;;8430385;28;20071;-75
2021/12/08 05:04:51;;;;;;;40.13;16.73;;;;;;;;;;8430262;28;20040;-75
2021/12/08 05:08:57;;;;;;;42.38;14.30;;;;;;;;;;8430653;28;20048;-77
2021/12/08 05:13:02;;;;;;;46.97;17.27;;;;;;;;;;8435577;28;20047;-75
2021/12/08 05:17:11;;;;;;;39.75;15.43;;;;;;;;;;8453014;28;20044;-74
2021/12/08 05:21:18;;;;;;;41.08;15.60;;;;;;;;;;8454735;28;20055;-76
2021/12/08 05:25:26;;;;;;;31.05;13.32;;;;;;;;;;8450582;28;20040;-75
2021/12/08 05:29:32;;;;;;;50.38;17.52;;;;;;;;;;8460865;28;20043;-74
2021/12/08 05:33:35;;;;;;;33.45;15.38;;;;;;;;;;8464060;28;20044;-77
2021/12/08 05:37:38;;;;;;;57.05;22.75;;;;;;;;;;8463315;28;20055;-72
2021/12/08 05:41:44;;;;;;;33.40;14.93;;;;;;;;;;8463219;28;20060;-76
2021/12/08 05:45:49;;;;;;;48.20;18.60;;;;;;;;;;8463271;28;20052;-75
2021/12/08 05:49:54;;;;;;;52.80;19.17;;;;;;;;;;8463219;28;20040;-76
2021/12/08 05:53:59;;;;;;;28.85;12.65;;;;;;;;;;8467529;28;20047;-77
2021/12/08 05:58:05;;;;;;;85.10;34.15;;;;;;;;;;8467737;28;20285;-73
2021/12/08 06:02:12;;;;;;;44.97;23.00;;;;;;;;;;8467541;28;20050;-75
2021/12/08 06:06:16;;;;;;;52.17;25.42;;;;;;;;;;8470451;28;20274;-74
2021/12/08 06:10:22;;;;;;;56.15;34.55;;;;;;;;;;8469671;28;20048;-76
2021/12/08 06:14:32;;;;;;;38.70;17.50;;;;;;;;;;8469152;28;20271;-76
2021/12/08 06:18:38;;;;;;;43.10;18.02;;;;;;;;;;8469358;28;20047;-75
2021/12/08 06:22:44;;;;;;;46.42;17.70;;;;;;;;;;8469318;28;20043;-76
2021/12/08 06:26:48;;;;;;;41.97;19.98;;;;;;;;;;8468731;28;20044;-74
2021/12/08 06:30:53;;;;;;;46.10;21.00;;;;;;;;;;8468545;28;20043;-76
2021/12/08 06:34:58;;;;;;;49.85;23.65;;;;;;;;;;8468830;28;20510;-77
2021/12/08 06:39:05;;;;;;;43.72;27.23;;;;;;;;;;8468159;28;20048;-77
2021/12/08 06:43:10;;;;;;;35.75;16.77;;;;;;;;;;8468198;28;20625;-76
2021/12/08 06:47:20;;;;;;;34.40;14.60;;;;;;;;;;8468095;28;20046;-76
2021/12/08 06:51:28;;;;;;;20.90;10.45;;;;;;;;;;8468467;28;20534;-75
2021/12/08 06:55:34;;;;;;;95.55;39.85;;;;;;;;;;8467727;28;20050;-76
2021/12/08 06:59:53;;;;;;;54.88;20.65;;;;;;;;;;8467594;28;20067;-77
2021/12/08 07:04:11;;;;;;;49.63;22.88;;;;;;;;;;8466706;28;20043;-76
2021/12/08 07:08:14;;;;;;;81.63;26.13;;;;;;;;;;8467436;28;20047;-77
2021/12/08 07:12:20;;;;;;;98.82;34.00;;;;;;;;;;8467196;28;20515;-76
2021/12/08 07:16:26;;;;;;;47.85;23.02;;;;;;;;;;8467095;28;20075;-75
2021/12/08 07:20:42;;;;;;;67.18;26.17;;;;;;;;;;8466976;28;20051;-78
2021/12/08 07:24:48;;;;;;;84.35;30.20;;;;;;;;;;8466855;28;20047;-77
2021/12/08 07:28:54;;;;;;;61.28;28.95;;;;;;;;;;8466676;28;20383;-76
2021/12/08 07:32:57;;;;;;;62.67;22.48;;;;;;;;;;8466542;28;20475;-75
2021/12/08 07:37:05;;;;;;;44.85;19.08;;;;;;;;;;8466757;28;20544;-77
2021/12/08 07:41:13;;;;;;;32.38;15.27;;;;;;;;;;8466337;28;20059;-74
2021/12/08 07:45:23;;;;;;;45.08;18.83;;;;;;;;;;8466079;28;20047;-76
2021/12/08 07:49:31;;;;;;;52.75;20.10;;;;;;;;;;8466492;28;20467;-75
2021/12/08 07:53:35;;;;;;;53.72;17.63;;;;;;;;;;8465950;28;20050;-77
2021/12/08 07:57:39;;;;;;;28.42;13.88;;;;;;;;;;8466131;28;20048;-75
2021/12/08 08:01:45;;;;;;;45.70;19.48;;;;;;;;;;8466092;28;20471;-76
2021/12/08 08:05:51;;;;;;;53.67;26.20;;;;;;;;;;8465483;28;20122;-75
2021/12/08 08:10:00;;;;;;;38.50;16.60;;;;;;;;;;8465850;28;20050;-73
2021/12/08 08:14:04;;;;;;;37.58;14.45;;;;;;;;;;8465637;28;20131;-77
2021/12/08 08:18:10;;;;;;;36.78;14.20;;;;;;;;;;8464906;28;20058;-75
2021/12/08 08:22:16;;;;;;;38.42;16.52;;;;;;;;;;8465631;28;20047;-77
2021/12/08 08:26:23;;;;;;;56.60;23.40;;;;;;;;;;8465335;28;20039;-76
2021/12/08 08:30:34;;;;;;;38.33;15.95;;;;;;;;;;8464742;28;20071;-76
2021/12/08 08:34:43;;;;;;;30.42;12.65;;;;;;;;;;8456030;28;20048;-76
2021/12/08 08:38:52;;;;;;;25.73;10.90;;;;;;;;;;8447439;28;20048;-76
2021/12/08 08:43:01;;;;;;;62.42;28.13;;;;;;;;;;8449407;28;20051;-76
2021/12/08 08:47:11;;;;;;;97.47;34.67;;;;;;;;;;8462935;28;20763;-76
2021/12/08 08:51:19;;;;;;;63.85;32.97;;;;;;;;;;8448578;28;20403;-76
2021/12/08 08:55:25;;;;;;;25.15;11.30;;;;;;;;;;8463580;28;20043;-74
2021/12/08 08:59:34;;;;;;;38.70;17.60;;;;;;;;;;8463269;28;20048;-75
2021/12/08 09:03:39;;;;;;;26.13;13.05;;;;;;;;;;8462650;28;20040;-74
2021/12/08 09:07:46;;;;;;;27.20;10.63;;;;;;;;;;8463516;28;20429;-75
2021/12/08 09:11:54;;;;;;;48.90;23.30;;;;;;;;;;8458481;28;20487;-75
2021/12/08 09:16:05;;;;;;;30.10;13.10;;;;;;;;;;8460297;28;20067;-75
2021/12/08 09:20:14;;;;;;;26.95;10.95;;;;;;;;;;8463018;28;20039;-74
2021/12/08 09:24:23;;;;;;;48.60;22.45;;;;;;;;;;8462970;28;20487;-76
2021/12/08 09:28:34;;;;;;;94.25;41.58;;;;;;;;;;8463617;28;20958;-73
2021/12/08 09:32:45;;;;;;;61.90;41.15;;;;;;;;;;8466319;28;20518;-74
2021/12/08 09:36:51;;;;;;;25.33;12.50;;;;;;;;;;8468460;28;20044;-77
2021/12/08 09:41:01;;;;;;;29.95;12.80;;;;;;;;;;8466585;28;20052;-75
2021/12/08 09:45:11;;;;;;;28.77;12.40;;;;;;;;;;8467727;28;20099;-75
2021/12/08 09:49:23;;;;;;;31.10;13.77;;;;;;;;;;8463279;28;20088;-75
2021/12/08 09:53:28;;;;;;;914.92;301.83;;;;;;;;;;8465740;28;20483;-74
2021/12/08 09:57:32;;;;;;;75.45;30.00;;;;;;;;;;8462173;28;20120;-76
2021/12/08 10:01:37;;;;;;;22.17;11.55;;;;;;;;;;8466183;28;20039;-75
2021/12/08 10:05:42;;;;;;;31.25;14.05;;;;;;;;;;8461691;28;20097;-75
2021/12/08 10:09:45;;;;;;;37.75;18.50;;;;;;;;;;8465979;28;20047;-72
2021/12/08 10:13:48;;;;;;;30.88;11.50;;;;;;;;;;8467737;28;20043;-75
2021/12/08 10:17:51;;;;;;;291.40;62.00;;;;;;;;;;8467540;28;20062;-74
2021/12/08 10:21:56;;;;;;;29.10;14.70;;;;;;;;;;8467304;28;20090;-75
2021/12/08 10:26:01;;;;;;;43.25;15.85;;;;;;;;;;8466885;28;20050;-75
2021/12/08 10:30:20;;;;;;;27.27;12.13;;;;;;;;;;8467509;28;20483;-74
2021/12/08 10:34:26;;;;;;;153.95;51.08;;;;;;;;;;8468750;28;20048;-75
2021/12/08 10:38:38;;;;;;;22.60;10.35;;;;;;;;;;8467508;28;20059;-74
2021/12/08 10:42:41;;;;;;;23.23;9.88;;;;;;;;;;8468517;28;20047;-74
2021/12/08 10:46:44;;;;;;;23.50;11.23;;;;;;;;;;8468066;28;20047;-74
2021/12/08 10:55:17;;;;;;;33.45;13.65;;;;;;;;;;8468214;28;20047;-74
2021/12/08 10:59:20;;;;;;;30.98;13.52;;;;;;;;;;8459332;28;20048;-74
2021/12/08 11:03:24;;;;;;;30.25;11.45;;;;;;;;;;8433890;28;20048;-74
2021/12/08 11:07:27;;;;;;;25.48;9.02;;;;;;;;;;8458136;28;20060;-74
2021/12/08 11:11:35;;;;;;;40.35;16.08;;;;;;;;;;8461535;28;20403;-74
2021/12/08 11:15:42;;;;;;;25.48;10.82;;;;;;;;;;8459345;28;20051;-75
2021/12/08 11:19:46;;;;;;;38.13;16.15;;;;;;;;;;8448031;28;20040;-76
2021/12/08 11:23:52;;;;;;;35.78;15.25;;;;;;;;;;8454684;28;20048;-75
2021/12/08 11:28:02;;;;;;;33.20;14.40;;;;;;;;;;8466848;28;20047;-74
2021/12/08 11:32:07;;;;;;;28.02;12.50;;;;;;;;;;8455891;28;20104;-73
2021/12/08 11:36:14;;;;;;;64.05;25.40;;;;;;;;;;8450645;28;20056;-73
2021/12/08 11:40:18;;;;;;;41.78;17.90;;;;;;;;;;8466340;28;20047;-74
2021/12/08 11:44:25;;;;;;;29.48;13.23;;;;;;;;;;8464963;28;20051;-72
2021/12/08 11:48:28;;;;;;;32.55;13.93;;;;;;;;;;8464012;28;20102;-74
2021/12/08 11:52:32;;;;;;;26.45;12.07;;;;;;;;;;8462695;28;20501;-75
2021/12/08 11:56:39;;;;;;;33.67;15.13;;;;;;;;;;8464036;28;20095;-75
2021/12/08 12:00:48;;;;;;;40.35;18.70;;;;;;;;;;8465560;28;20044;-74
2021/12/08 12:04:51;;;;;;;49.38;19.23;;;;;;;;;;8465955;28;20055;-74
2021/12/08 12:08:58;;;;;;;58.90;23.85;;;;;;;;;;8466370;28;20430;-73
2021/12/08 12:13:03;;;;;;;45.25;15.85;;;;;;;;;;8465213;28;20074;-74
2021/12/08 12:17:08;;;;;;;25.70;11.00;;;;;;;;;;8465076;28;20050;-75
2021/12/08 12:21:17;;;;;;;35.95;13.88;;;;;;;;;;8465432;28;20051;-74
2021/12/08 12:25:45;;;;;;;29.60;12.02;;;;;;;;;;8464912;28;20101;-74
2021/12/08 12:30:04;;;;;;;169.50;60.50;;;;;;;;;;8464813;28;20100;-74
2021/12/08 12:34:27;;;;;;;269.80;93.75;;;;;;;;;;8465122;28;20044;-75
2021/12/08 12:38:35;;;;;;;66.88;29.55;;;;;;;;;;8464990;28;20395;-74
2021/12/08 12:42:47;;;;;;;67.30;30.10;;;;;;;;;;8460759;28;20055;-75
2021/12/08 12:47:13;;;;;;;68.60;27.87;;;;;;;;;;8459070;28;20035;-74
2021/12/08 12:51:19;;;;;;;48.33;22.58;;;;;;;;;;8453636;28;20289;-75
2021/12/08 12:55:26;;;;;;;49.33;20.98;;;;;;;;;;8459833;28;20040;-74
2021/12/08 12:59:40;;;;;;;39.67;22.67;;;;;;;;;;8464308;28;20052;-73
2021/12/08 13:03:50;;;;;;;33.92;12.98;;;;;;;;;;8458032;28;20047;-74
2021/12/08 13:08:01;;;;;;;30.60;13.20;;;;;;;;;;8448494;28;20487;-74
2021/12/08 13:12:09;;;;;;;42.63;19.07;;;;;;;;;;8448193;28;20126;-75
2021/12/08 13:16:22;;;;;;;37.85;15.57;;;;;;;;;;8457728;28;20035;-73
2021/12/08 13:20:27;;;;;;;34.20;15.82;;;;;;;;;;8458115;28;20047;-74
2021/12/08 13:24:42;;;;;;;36.83;15.40;;;;;;;;;;8459289;28;20127;-74
2021/12/08 13:28:50;;;;;;;25.25;12.68;;;;;;;;;;8461467;28;20044;-74
2021/12/08 13:33:07;;;;;;;22.15;9.75;;;;;;;;;;8458889;28;20044;-74
2021/12/08 13:37:29;;;;;;;32.17;13.68;;;;;;;;;;8448199;28;20419;-74
2021/12/08 13:41:36;;;;;;;75.80;19.15;;;;;;;;;;8462320;28;20449;-75
2021/12/08 13:45:45;;;;;;;519.55;194.93;;;;;;;;;;8462011;28;20499;-74
2021/12/08 13:49:52;;;;;;;57.70;22.35;;;;;;;;;;8461187;28;20471;-74
2021/12/08 13:54:26;;;;;;;58.65;25.70;;;;;;;;;;8462668;28;20142;-74
2021/12/08 13:58:37;;;;;;;77.93;23.95;;;;;;;;;;8443115;28;20096;-74
2021/12/08 14:02:46;;;;;;;30.58;13.43;;;;;;;;;;8462087;28;20051;-74
2021/12/08 14:06:49;;;;;;;49.95;22.40;;;;;;;;;;8458747;28;20054;-74
2021/12/08 14:10:55;;;;;;;54.70;23.08;;;;;;;;;;8455471;28;20487;-74
2021/12/08 14:15:00;;;;;;;69.47;24.20;;;;;;;;;;8460129;28;20134;-73
2021/12/08 14:19:03;;;;;;;57.78;20.90;;;;;;;;;;8463225;28;20044;-76
2021/12/08 14:23:08;;;;;;;33.67;15.05;;;;;;;;;;8462523;28;20096;-73
2021/12/08 14:27:11;;;;;;;20.42;10.45;;;;;;;;;;8464606;28;20039;-74
2021/12/08 14:31:34;;;;;;;20.88;11.30;;;;;;;;;;8465795;28;20039;-75
2021/12/08 14:35:37;;;;;;;25.92;11.70;;;;;;;;;;8463651;28;20046;-74
2021/12/08 14:39:45;;;;;;;62.38;23.15;;;;;;;;;;8463139;28;20101;-75
2021/12/08 14:43:52;;;;;;;152.55;47.75;;;;;;;;;;8461210;28;20146;-74
2021/12/08 14:47:57;;;;;;;97.57;35.95;;;;;;;;;;8462392;28;20549;-75
2021/12/08 14:52:06;;;;;;;85.03;28.58;;;;;;;;;;8466514;28;20156;-75
2021/12/08 14:56:11;;;;;;;85.85;31.85;;;;;;;;;;8463439;28;20050;-73
2021/12/08 15:00:18;;;;;;;36.83;14.38;;;;;;;;;;8462812;28;20040;-75
2021/12/08 15:04:23;;;;;;;42.40;19.48;;;;;;;;;;8465441;28;20457;-74
2021/12/08 15:08:26;;;;;;;104.03;36.08;;;;;;;;;;8462939;28;20044;-75
2021/12/08 15:12:29;;;;;;;72.93;31.02;;;;;;;;;;8455153;28;20063;-74
2021/12/08 15:16:32;;;;;;;42.65;20.05;;;;;;;;;;8462067;28;20047;-74
2021/12/08 15:20:39;;;;;;;49.67;21.70;;;;;;;;;;8458933;28;20059;-75
2021/12/08 15:24:43;;;;;;;43.17;17.48;;;;;;;;;;8457828;28;20071;-74
2021/12/08 15:28:48;;;;;;;40.53;15.45;;;;;;;;;;8455931;28;20044;-73
2021/12/08 15:33:04;;;;;;;34.28;16.50;;;;;;;;;;8463232;28;20058;-75
2021/12/08 15:37:13;;;;;;;102.28;40.53;;;;;;;;;;8464700;28;20134;-74
2021/12/08 15:41:20;;;;;;;113.65;37.70;;;;;;;;;;8464574;28;20075;-74
2021/12/08 15:45:26;;;;;;;99.78;41.60;;;;;;;;;;8461652;28;20482;-73
2021/12/08 15:49:31;;;;;;;41.35;18.83;;;;;;;;;;8462560;28;20043;-74
2021/12/08 15:53:39;;;;;;;48.05;22.80;;;;;;;;;;8460900;28;20050;-74
2021/12/08 15:57:42;;;;;;;81.07;38.33;;;;;;;;;;8452851;28;20054;-75
2021/12/08 16:01:46;;;;;;;103.15;39.58;;;;;;;;;;8459377;28;20154;-73
2021/12/08 16:05:49;;;;;;;44.40;22.50;;;;;;;;;;8460519;28;20063;-74
2021/12/08 16:09:55;;;;;;;73.30;25.92;;;;;;;;;;8449088;28;20052;-74
2021/12/08 16:14:31;;;;;;;54.05;25.08;;;;;;;;;;8461620;28;20070;-75
2021/12/08 16:18:35;;;;;;;54.35;23.55;;;;;;;;;;8321221;28;20071;-75
2021/12/08 16:22:39;;;;;;;45.80;19.45;;;;;;;;;;8325604;28;20049;-75
2021/12/08 16:26:56;;;;;;;71.90;27.23;;;;;;;;;;8324010;28;20053;-74
2021/12/08 16:31:00;;;;;;;47.38;18.67;;;;;;;;;;8325911;28;20052;-75
2021/12/08 16:35:05;;;;;;;54.45;22.10;;;;;;;;;;8326135;28;20055;-74
2021/12/08 16:39:14;;;;;;;35.80;16.00;;;;;;;;;;8315119;28;20128;-75
2021/12/08 16:43:21;;;;;;;37.50;15.63;;;;;;;;;;8327015;28;20505;-74
2021/12/08 16:47:37;;;;;;;50.53;20.75;;;;;;;;;;8353624;28;20093;-72
2021/12/08 16:51:45;;;;;;;43.40;17.48;;;;;;;;;;8464381;28;20402;-77
2021/12/08 16:55:53;;;;;;;45.75;19.00;;;;;;;;;;8458898;28;20044;-74
2021/12/08 17:00:00;;;;;;;52.15;20.35;;;;;;;;;;8459481;28;20059;-74
2021/12/08 17:04:05;;;;;;;46.58;17.35;;;;;;;;;;8448449;28;20493;-73
2021/12/08 17:08:13;;;;;;;50.70;18.05;;;;;;;;;;8462799;28;20550;-73
2021/12/08 17:12:19;;;;;;;36.67;15.77;;;;;;;;;;8448247;28;20414;-74
2021/12/08 17:16:32;;;;;;;44.78;18.00;;;;;;;;;;8443880;28;20050;-74
2021/12/08 17:20:40;;;;;;;45.63;19.90;;;;;;;;;;8450314;28;20044;-72
2021/12/08 17:24:52;;;;;;;43.10;18.40;;;;;;;;;;8456555;28;20052;-73
2021/12/08 17:28:59;;;;;;;48.25;21.85;;;;;;;;;;8438513;28;20483;-72
2021/12/08 17:33:11;;;;;;;25.98;12.05;;;;;;;;;;8462452;28;20093;-74
2021/12/08 17:37:17;;;;;;;67.95;22.83;;;;;;;;;;8452915;28;20047;-74
2021/12/08 17:41:21;;;;;;;50.03;21.50;;;;;;;;;;8461957;28;20052;-73
2021/12/08 17:45:56;;;;;;;46.10;18.58;;;;;;;;;;8460201;28;20448;-77
2021/12/08 17:50:26;;;;;;;116.97;47.10;;;;;;;;;;8456641;28;20069;-73
2021/12/08 17:54:31;;;;;;;59.65;19.65;;;;;;;;;;8455141;28;20051;-74
2021/12/08 17:58:36;;;;;;;74.22;24.95;;;;;;;;;;8458700;28;20396;-74
2021/12/08 18:02:48;;;;;;;63.33;23.58;;;;;;;;;;8457861;28;20052;-73
2021/12/08 18:07:03;;;;;;;41.83;16.70;;;;;;;;;;8456292;28;20051;-74
2021/12/08 18:11:37;;;;;;;58.75;24.95;;;;;;;;;;8458985;28;20051;-74
2021/12/08 18:15:44;;;;;;;87.65;25.90;;;;;;;;;;8453291;28;20076;-74
2021/12/08 18:25:29;;;;;;;55.80;21.98;;;;;;;;;;8446915;28;20070;-73
2021/12/08 18:29:54;;;;;;;162.30;51.55;;;;;;;;;;8406626;28;20043;-75
2021/12/08 18:34:03;;;;;;;70.18;24.65;;;;;;;;;;8463357;28;20046;-75
2021/12/08 18:38:15;;;;;;;104.30;41.25;;;;;;;;;;8466199;28;20088;-74
2021/12/08 18:42:32;;;;;;;89.65;32.35;;;;;;;;;;8465545;28;20116;-74
2021/12/08 18:46:53;;;;;;;120.47;50.60;;;;;;;;;;8461527;28;20391;-73
2021/12/08 18:50:58;;;;;;;44.47;17.43;;;;;;;;;;8462789;28;20047;-74
2021/12/08 18:55:09;;;;;;;54.30;24.17;;;;;;;;;;8464147;28;20333;-73
2021/12/08 19:04:45;;;;;;;46.70;19.60;;;;;;;;;;8463503;28;20124;-72
2021/12/08 19:08:56;;;;;;;48.13;17.90;;;;;;;;;;8466467;28;20435;-74
2021/12/08 19:13:06;;;;;;;51.53;19.60;;;;;;;;;;8460567;28;20035;-73
2021/12/08 19:17:19;;;;;;;57.10;25.65;;;;;;;;;;8448366;28;20044;-74
2021/12/08 19:21:24;;;;;;;62.50;25.13;;;;;;;;;;8456703;28;20058;-78
2021/12/08 19:25:29;;;;;;;44.08;17.95;;;;;;;;;;8451217;28;20052;-74
2021/12/08 19:29:33;;;;;;;65.45;28.38;;;;;;;;;;8450419;28;20055;-77
2021/12/08 19:33:38;;;;;;;56.70;21.90;;;;;;;;;;8433982;28;20040;-72
2021/12/08 19:37:43;;;;;;;62.28;23.85;;;;;;;;;;8441890;28;20051;-76
2021/12/08 19:41:47;;;;;;;39.75;13.80;;;;;;;;;;8447154;28;20488;-78
2021/12/08 19:45:51;;;;;;;70.85;24.25;;;;;;;;;;8449216;28;20039;-74
2021/12/08 19:49:55;;;;;;;126.45;50.90;;;;;;;;;;8450221;28;20048;-74
2021/12/08 19:54:00;;;;;;;52.08;19.95;;;;;;;;;;8466295;28;20044;-74
2021/12/08 19:58:05;;;;;;;43.90;19.48;;;;;;;;;;8465938;28;20452;-73
2021/12/08 20:02:09;;;;;;;32.30;14.32;;;;;;;;;;8465699;28;20051;-75
2021/12/08 20:06:14;;;;;;;53.65;19.80;;;;;;;;;;8465621;28;20040;-72
2021/12/08 20:10:19;;;;;;;90.63;37.42;;;;;;;;;;8465801;28;20051;-74
2021/12/08 20:14:25;;;;;;;45.95;20.40;;;;;;;;;;8465590;28;20047;-74
2021/12/08 20:18:28;;;;;;;72.07;27.95;;;;;;;;;;8465865;28;20074;-74
2021/12/08 20:22:32;;;;;;;49.40;18.75;;;;;;;;;;8465708;28;20139;-73
2021/12/08 20:26:39;;;;;;;47.10;17.52;;;;;;;;;;8465440;28;20056;-74
2021/12/08 20:30:45;;;;;;;60.58;23.95;;;;;;;;;;8464899;28;20055;-75
2021/12/08 20:34:53;;;;;;;42.25;18.98;;;;;;;;;;8463973;28;20055;-74
2021/12/08 20:38:58;;;;;;;51.15;19.17;;;;;;;;;;8462861;28;20043;-74
2021/12/08 20:43:05;;;;;;;51.80;20.08;;;;;;;;;;8463015;28;20079;-73
2021/12/08 20:47:10;;;;;;;42.97;17.52;;;;;;;;;;8464396;28;20051;-74
2021/12/08 20:51:17;;;;;;;63.88;22.20;;;;;;;;;;8464035;28;20045;-74
2021/12/08 20:55:21;;;;;;;55.17;22.85;;;;;;;;;;8464267;28;20105;-74
2021/12/08 20:59:27;;;;;;;40.42;16.83;;;;;;;;;;8463813;28;20043;-73
2021/12/08 21:03:31;;;;;;;53.83;18.83;;;;;;;;;;8464066;28;20078;-73
2021/12/08 21:07:35;;;;;;;45.90;18.70;;;;;;;;;;8463970;28;20043;-73
2021/12/08 21:11:39;;;;;;;54.92;19.73;;;;;;;;;;8464280;28;20062;-72
2021/12/08 21:15:45;;;;;;;196.73;48.55;;;;;;;;;;8463796;28;20136;-74
2021/12/08 21:19:48;;;;;;;38.28;16.92;;;;;;;;;;8463777;28;20043;-73
2021/12/08 21:23:53;;;;;;;39.50;17.77;;;;;;;;;;8466692;28;20050;-74
2021/12/08 21:27:57;;;;;;;41.15;17.17;;;;;;;;;;8471278;28;20043;-72
2021/12/08 21:32:09;;;;;;;196.90;51.92;;;;;;;;;;8470657;28;20044;-75
2021/12/08 21:36:12;;;;;;;46.03;19.25;;;;;;;;;;8471509;28;20052;-73
2021/12/08 21:40:16;;;;;;;45.85;17.65;;;;;;;;;;8452053;28;20048;-74
2021/12/08 21:44:19;;;;;;;52.38;18.77;;;;;;;;;;8470091;28;20399;-74
2021/12/08 21:48:28;;;;;;;36.40;16.83;;;;;;;;;;8470125;28;20130;-74
2021/12/08 21:52:31;;;;;;;41.85;15.45;;;;;;;;;;8470534;28;20047;-73
2021/12/08 21:56:34;;;;;;;41.20;16.10;;;;;;;;;;8470180;28;20662;-73
2021/12/08 22:00:40;;;;;;;48.78;19.55;;;;;;;;;;8469815;28;20399;-73
2021/12/08 22:04:45;;;;;;;48.53;18.17;;;;;;;;;;8469743;28;20039;-74
2021/12/08 22:08:48;;;;;;;42.70;15.18;;;;;;;;;;8469573;28;20054;-73
2021/12/08 22:12:54;;;;;;;37.00;15.50;;;;;;;;;;8469463;28;20071;-74
2021/12/08 22:16:57;;;;;;;25.80;11.30;;;;;;;;;;8469302;28;20047;-74
2021/12/08 22:21:02;;;;;;;57.25;24.90;;;;;;;;;;8469072;28;20481;-75
2021/12/08 22:25:07;;;;;;;44.05;16.90;;;;;;;;;;8469052;28;20052;-74
2021/12/08 22:29:13;;;;;;;47.00;18.50;;;;;;;;;;8468805;28;20052;-75
2021/12/08 22:33:21;;;;;;;45.38;17.15;;;;;;;;;;8468715;28;20048;-75
2021/12/08 22:37:26;;;;;;;47.50;17.45;;;;;;;;;;8468671;28;20050;-74
2021/12/08 22:41:29;;;;;;;44.30;15.45;;;;;;;;;;8468205;28;20082;-74
2021/12/08 22:45:32;;;;;;;37.60;16.13;;;;;;;;;;8468458;28;20596;-74
2021/12/08 22:49:36;;;;;;;44.05;16.55;;;;;;;;;;8468213;28;20104;-74
2021/12/08 22:53:41;;;;;;;40.15;13.65;;;;;;;;;;8468173;28;20043;-76
2021/12/08 22:57:46;;;;;;;44.17;18.20;;;;;;;;;;8468628;28;20043;-74
2021/12/08 23:01:49;;;;;;;56.30;18.35;;;;;;;;;;8467665;28;20070;-74
2021/12/08 23:05:53;;;;;;;58.25;21.70;;;;;;;;;;8467791;28;20093;-74
2021/12/08 23:09:58;;;;;;;36.63;12.98;;;;;;;;;;8467806;28;20061;-74
2021/12/08 23:14:03;;;;;;;46.65;15.43;;;;;;;;;;8467559;28;20043;-75
2021/12/08 23:18:06;;;;;;;57.95;20.52;;;;;;;;;;8467404;28;20048;-74
2021/12/08 23:22:10;;;;;;;39.85;15.48;;;;;;;;;;8467581;28;20046;-74
2021/12/08 23:26:15;;;;;;;49.95;18.83;;;;;;;;;;8467126;28;20047;-75
2021/12/08 23:30:19;;;;;;;44.70;18.60;;;;;;;;;;8467365;28;20058;-73
2021/12/08 23:34:30;;;;;;;47.72;19.02;;;;;;;;;;8466769;28;20048;-74
2021/12/08 23:38:59;;;;;;;43.10;15.68;;;;;;;;;;8466633;28;20043;-74
2021/12/08 23:43:05;;;;;;;43.00;16.70;;;;;;;;;;8466917;28;20422;-74
2021/12/08 23:47:09;;;;;;;41.65;17.02;;;;;;;;;;8465783;28;20093;-74
2021/12/08 23:51:12;;;;;;;44.75;17.17;;;;;;;;;;8466442;28;20135;-74
2021/12/08 23:55:16;;;;;;;38.30;16.73;;;;;;;;;;8466651;28;20552;-73
2021/12/08 23:59:24;;;;;;;45.38;18.20;;;;;;;;;;8466087;28;20055;-74
